Time;durP1;ratioP1;P1;durP2;ratioP2;P2;SDS_P1;SDS_P2;PMS_P1;PMS_P2;Temp;Humidity;BMP_temperature;BMP_pressure;BME280_temperature;BME280_humidity;BME280_pressure;Samples;Min_cycle;Max_cycle;Signal;HPM_P1;HPM_P2
2023/06/01 00:00:49;;;;;;;10.57;4.05;;;;;;;;;;4887500;29;20084;-62
2023/06/01 00:03:23;;;;;;;9.93;4.50;;;;;;;;;;4901852;29;20076;-62
2023/06/01 00:06:16;;;;;;;8.73;4.20;;;;;;;;;;4888835;29;20056;-63
2023/06/01 00:08:50;;;;;;;15.95;4.55;;;;;;;;;;4903444;29;20048;-62
2023/06/01 00:11:21;;;;;;;8.63;4.32;;;;;;;;;;4881124;29;20428;-63
2023/06/01 00:13:54;;;;;;;8.68;4.15;;;;;;;;;;4897114;29;20503;-62
2023/06/01 00:16:25;;;;;;;11.38;4.13;;;;;;;;;;4916011;29;20063;-62
2023/06/01 00:18:56;;;;;;;10.90;4.78;;;;;;;;;;4933405;29;20432;-61
2023/06/01 00:21:47;;;;;;;9.23;4.75;;;;;;;;;;4912531;29;20056;-62
2023/06/01 00:24:20;;;;;;;9.82;4.40;;;;;;;;;;4931046;29;20055;-62
2023/06/01 00:27:36;;;;;;;8.48;4.00;;;;;;;;;;4881205;29;20056;-62
2023/06/01 00:30:11;;;;;;;10.48;4.30;;;;;;;;;;4877132;29;20476;-63
2023/06/01 00:33:02;;;;;;;9.98;3.95;;;;;;;;;;4855407;29;20054;-63
2023/06/01 00:35:37;;;;;;;11.23;4.95;;;;;;;;;;4825074;29;20064;-64
2023/06/01 00:38:10;;;;;;;9.93;4.45;;;;;;;;;;4863138;29;20541;-63
2023/06/01 00:41:03;;;;;;;9.77;4.82;;;;;;;;;;4874138;29;20056;-62
2023/06/01 00:43:37;;;;;;;11.50;4.63;;;;;;;;;;4874706;29;20072;-64
2023/06/01 00:46:12;;;;;;;10.07;4.65;;;;;;;;;;4874611;29;20057;-63
2023/06/01 00:49:21;;;;;;;11.73;4.68;;;;;;;;;;4855830;29;20580;-64
2023/06/01 00:51:55;;;;;;;11.63;5.07;;;;;;;;;;4811335;29;20435;-63
2023/06/01 00:54:29;;;;;;;10.30;4.80;;;;;;;;;;4828335;29;20066;-63
2023/06/01 00:57:00;;;;;;;11.23;4.65;;;;;;;;;;4835313;29;20046;-63
2023/06/01 00:59:31;;;;;;;11.38;5.13;;;;;;;;;;4813488;29;20069;-63
2023/06/01 01:02:07;;;;;;;12.25;5.50;;;;;;;;;;4790671;29;20055;-63
2023/06/01 01:04:45;;;;;;;14.15;5.80;;;;;;;;;;4838245;29;20053;-63
2023/06/01 01:07:26;;;;;;;14.50;5.60;;;;;;;;;;4835472;29;20385;-63
2023/06/01 01:10:17;;;;;;;12.20;5.47;;;;;;;;;;4824165;29;20421;-64
2023/06/01 01:12:55;;;;;;;11.57;4.90;;;;;;;;;;4876690;29;20576;-62
2023/06/01 01:15:30;;;;;;;11.73;4.78;;;;;;;;;;4858227;29;20530;-61
2023/06/01 01:18:04;;;;;;;12.27;5.63;;;;;;;;;;4831084;29;20059;-63
2023/06/01 01:20:40;;;;;;;12.57;5.20;;;;;;;;;;4820971;29;20070;-62
2023/06/01 01:23:48;;;;;;;10.57;5.28;;;;;;;;;;4840743;29;20057;-62
2023/06/01 01:26:47;;;;;;;12.55;5.43;;;;;;;;;;4859021;29;20061;-62
2023/06/01 01:29:21;;;;;;;13.50;5.63;;;;;;;;;;4857603;29;20088;-62
2023/06/01 01:31:52;;;;;;;12.15;6.35;;;;;;;;;;4874074;29;20065;-63
2023/06/01 01:34:27;;;;;;;13.98;6.30;;;;;;;;;;4859076;29;20094;-62
2023/06/01 01:36:57;;;;;;;12.20;5.82;;;;;;;;;;4873508;29;20053;-62
2023/06/01 01:39:28;;;;;;;14.95;6.03;;;;;;;;;;4859067;29;20065;-62
2023/06/01 01:41:58;;;;;;;15.43;6.05;;;;;;;;;;4883024;29;20060;-62
2023/06/01 01:44:29;;;;;;;12.40;5.85;;;;;;;;;;4914885;29;20048;-62
2023/06/01 01:47:06;;;;;;;12.73;5.93;;;;;;;;;;4933424;29;20052;-62
2023/06/01 01:49:45;;;;;;;12.85;6.13;;;;;;;;;;4917358;29;20058;-63
2023/06/01 01:52:37;;;;;;;14.63;6.20;;;;;;;;;;4934204;29;20087;-62
2023/06/01 01:55:11;;;;;;;15.43;5.97;;;;;;;;;;4903428;29;20051;-62
2023/06/01 01:57:43;;;;;;;16.02;6.70;;;;;;;;;;4914371;29;20404;-62
2023/06/01 02:00:14;;;;;;;13.90;5.75;;;;;;;;;;4886954;29;20049;-62
2023/06/01 02:02:47;;;;;;;14.30;5.72;;;;;;;;;;4877747;29;20067;-62
2023/06/01 02:05:17;;;;;;;12.27;5.72;;;;;;;;;;4882448;29;20057;-62
2023/06/01 02:07:48;;;;;;;14.77;5.80;;;;;;;;;;4891905;29;20060;-62
2023/06/01 02:10:19;;;;;;;13.57;6.70;;;;;;;;;;4898368;29;20551;-62
2023/06/01 02:12:49;;;;;;;15.25;7.75;;;;;;;;;;4902621;29;20063;-62
2023/06/01 02:15:19;;;;;;;12.20;6.00;;;;;;;;;;4945621;29;20059;-63
2023/06/01 02:17:51;;;;;;;13.52;5.97;;;;;;;;;;4914507;29;20180;-63
2023/06/01 02:20:21;;;;;;;16.52;6.35;;;;;;;;;;4914379;29;20052;-62
2023/06/01 02:22:51;;;;;;;11.85;5.63;;;;;;;;;;4851242;29;20058;-63
2023/06/01 02:25:21;;;;;;;12.35;5.97;;;;;;;;;;4892010;29;20049;-63
2023/06/01 02:27:52;;;;;;;14.27;5.68;;;;;;;;;;4888386;29;20054;-63
2023/06/01 02:30:23;;;;;;;12.18;5.88;;;;;;;;;;4876518;29;20060;-63
2023/06/01 02:32:53;;;;;;;13.98;5.90;;;;;;;;;;4871600;29;21120;-63
2023/06/01 02:35:24;;;;;;;14.55;6.57;;;;;;;;;;4894886;29;20065;-63
2023/06/01 02:37:55;;;;;;;15.25;6.10;;;;;;;;;;4932572;29;20067;-63
2023/06/01 02:40:25;;;;;;;13.43;5.60;;;;;;;;;;4925751;29;20053;-63
2023/06/01 02:42:55;;;;;;;17.55;6.18;;;;;;;;;;4895213;29;20638;-64
2023/06/01 02:45:25;;;;;;;13.27;6.18;;;;;;;;;;4932437;29;20047;-64
2023/06/01 02:47:56;;;;;;;17.58;6.10;;;;;;;;;;4933066;29;20504;-63
2023/06/01 02:50:26;;;;;;;13.25;5.70;;;;;;;;;;4923245;29;20048;-63
2023/06/01 02:52:56;;;;;;;11.68;5.43;;;;;;;;;;4907721;29;20091;-63
2023/06/01 02:55:27;;;;;;;18.70;5.93;;;;;;;;;;4928967;29;20056;-63
2023/06/01 02:58:21;;;;;;;12.43;5.72;;;;;;;;;;4932421;29;20052;-62
2023/06/01 03:01:01;;;;;;;13.45;5.78;;;;;;;;;;4925033;29;20052;-63
2023/06/01 03:03:32;;;;;;;14.38;5.72;;;;;;;;;;4921983;29;20056;-63
2023/06/01 03:06:03;;;;;;;15.32;5.88;;;;;;;;;;4899951;29;20056;-63
2023/06/01 03:09:05;;;;;;;14.15;5.47;;;;;;;;;;4902556;29;20101;-63
2023/06/01 03:11:55;;;;;;;11.68;5.13;;;;;;;;;;4913280;29;20052;-63
2023/06/01 03:14:28;;;;;;;11.68;5.57;;;;;;;;;;4914228;29;20059;-63
2023/06/01 03:16:58;;;;;;;14.90;6.25;;;;;;;;;;4893909;29;20052;-63
2023/06/01 03:19:28;;;;;;;14.07;5.88;;;;;;;;;;4875849;29;20052;-63
2023/06/01 03:22:00;;;;;;;;;;;;;;;;;;4893516;29;20060;-63
2023/06/01 03:24:30;;;;;;;9.93;5.20;;;;;;;;;;4894144;29;19930;-64
2023/06/01 03:27:04;;;;;;;13.25;6.03;;;;;;;;;;4912694;29;20056;-63
2023/06/01 03:29:37;;;;;;;11.65;5.53;;;;;;;;;;4911059;29;20048;-63
2023/06/01 03:32:08;;;;;;;16.17;6.68;;;;;;;;;;4893855;29;20056;-63
2023/06/01 03:34:40;;;;;;;13.45;5.57;;;;;;;;;;4931801;29;20058;-63
2023/06/01 03:37:10;;;;;;;12.70;6.22;;;;;;;;;;4893556;29;20539;-63
2023/06/01 03:39:40;;;;;;;12.57;5.45;;;;;;;;;;4894101;29;20052;-63
2023/06/01 03:42:13;;;;;;;13.65;5.75;;;;;;;;;;4857948;29;20069;-63
2023/06/01 03:44:43;;;;;;;12.57;5.70;;;;;;;;;;4872873;29;20075;-63
2023/06/01 03:47:14;;;;;;;14.23;5.80;;;;;;;;;;4862847;29;20409;-63
2023/06/01 03:49:45;;;;;;;13.68;5.88;;;;;;;;;;4912778;29;20052;-63
2023/06/01 03:52:16;;;;;;;12.50;5.78;;;;;;;;;;4871705;29;20057;-63
2023/06/01 03:54:48;;;;;;;16.45;5.90;;;;;;;;;;4893795;29;20067;-64
2023/06/01 03:57:43;;;;;;;11.18;5.68;;;;;;;;;;4888142;29;20482;-63
2023/06/01 04:00:20;;;;;;;13.80;5.70;;;;;;;;;;4840780;29;20068;-63
2023/06/01 04:02:56;;;;;;;12.50;5.80;;;;;;;;;;4901389;29;20130;-62
2023/06/01 04:05:27;;;;;;;11.32;5.63;;;;;;;;;;4844268;29;21247;-63
2023/06/01 04:07:58;;;;;;;12.25;5.55;;;;;;;;;;4852515;29;20057;-63
2023/06/01 04:10:28;;;;;;;12.82;5.70;;;;;;;;;;4874966;29;21142;-63
2023/06/01 04:12:59;;;;;;;17.48;6.30;;;;;;;;;;4830381;29;20061;-63
2023/06/01 04:15:30;;;;;;;13.88;5.45;;;;;;;;;;4874997;29;20053;-63
2023/06/01 04:18:02;;;;;;;12.93;6.32;;;;;;;;;;4877872;29;20060;-62
2023/06/01 04:21:08;;;;;;;11.77;5.38;;;;;;;;;;4923321;29;20063;-63
2023/06/01 04:23:39;;;;;;;13.88;5.68;;;;;;;;;;4912208;29;20056;-63
2023/06/01 04:26:12;;;;;;;13.93;6.07;;;;;;;;;;4930967;29;20539;-63
2023/06/01 04:28:43;;;;;;;12.43;5.40;;;;;;;;;;4893325;29;20063;-63
2023/06/01 04:31:16;;;;;;;11.93;5.40;;;;;;;;;;4874346;29;20053;-63
2023/06/01 04:33:52;;;;;;;14.20;5.68;;;;;;;;;;4875095;29;20049;-63
2023/06/01 04:36:29;;;;;;;13.95;5.82;;;;;;;;;;4888998;29;20064;-63
2023/06/01 04:39:04;;;;;;;11.25;5.63;;;;;;;;;;4870833;29;20453;-63
2023/06/01 04:41:35;;;;;;;11.82;5.40;;;;;;;;;;4889533;29;20061;-63
2023/06/01 04:44:06;;;;;;;13.80;5.47;;;;;;;;;;4874397;29;20053;-63
2023/06/01 04:46:39;;;;;;;15.90;5.63;;;;;;;;;;4874897;29;20060;-63
2023/06/01 04:49:11;;;;;;;13.48;5.95;;;;;;;;;;4875826;29;20052;-63
2023/06/01 04:51:42;;;;;;;11.20;5.55;;;;;;;;;;4890049;29;20072;-63
2023/06/01 04:54:12;;;;;;;11.57;5.90;;;;;;;;;;4858173;29;20049;-63
2023/06/01 04:56:42;;;;;;;10.48;4.93;;;;;;;;;;4891020;29;20060;-63
2023/06/01 04:59:13;;;;;;;11.45;5.03;;;;;;;;;;4893249;29;20216;-64
2023/06/01 05:01:43;;;;;;;11.55;5.13;;;;;;;;;;4886699;29;20048;-64
2023/06/01 05:04:14;;;;;;;13.05;5.35;;;;;;;;;;4850407;29;20058;-62
2023/06/01 05:06:46;;;;;;;9.32;4.68;;;;;;;;;;4869600;29;20053;-63
2023/06/01 05:09:17;;;;;;;11.27;5.28;;;;;;;;;;4910583;29;20528;-63
2023/06/01 05:11:47;;;;;;;10.93;5.38;;;;;;;;;;4893177;29;20072;-62
2023/06/01 05:14:18;;;;;;;11.10;4.63;;;;;;;;;;4874505;29;20045;-62
2023/06/01 05:16:49;;;;;;;11.98;5.32;;;;;;;;;;4892980;29;20561;-63
2023/06/01 05:19:20;;;;;;;11.25;5.32;;;;;;;;;;4883258;29;20060;-63
2023/06/01 05:21:50;;;;;;;9.52;5.07;;;;;;;;;;4859051;29;20095;-62
2023/06/01 05:24:21;;;;;;;11.20;4.68;;;;;;;;;;4874248;29;20057;-62
2023/06/01 05:26:51;;;;;;;13.57;4.93;;;;;;;;;;4892614;29;20114;-62
2023/06/01 05:29:22;;;;;;;12.90;4.82;;;;;;;;;;4873914;29;20060;-63
2023/06/01 05:31:52;;;;;;;13.55;5.80;;;;;;;;;;4843213;29;20510;-63
2023/06/01 05:34:23;;;;;;;11.60;5.43;;;;;;;;;;4822108;29;20062;-63
2023/06/01 05:36:53;;;;;;;12.90;4.70;;;;;;;;;;4837234;29;20058;-63
2023/06/01 05:39:28;;;;;;;12.32;5.85;;;;;;;;;;4821960;29;20062;-62
2023/06/01 05:41:58;;;;;;;11.88;5.00;;;;;;;;;;4840140;29;20062;-63
2023/06/01 05:44:35;;;;;;;10.13;5.03;;;;;;;;;;4807724;29;20059;-62
2023/06/01 05:47:06;;;;;;;17.63;5.35;;;;;;;;;;4803603;29;20055;-62
2023/06/01 05:49:36;;;;;;;12.30;5.30;;;;;;;;;;4818943;29;20067;-62
2023/06/01 05:52:09;;;;;;;12.63;5.15;;;;;;;;;;4792964;29;20067;-62
2023/06/01 05:54:40;;;;;;;12.40;5.30;;;;;;;;;;4821996;29;20066;-62
2023/06/01 05:57:10;;;;;;;13.00;5.32;;;;;;;;;;4821676;29;20046;-63
2023/06/01 05:59:42;;;;;;;14.13;5.35;;;;;;;;;;4830046;29;20165;-62
2023/06/01 06:02:13;;;;;;;13.50;5.85;;;;;;;;;;4822025;29;20077;-62
2023/06/01 06:04:44;;;;;;;12.38;5.40;;;;;;;;;;4822078;29;20116;-62
2023/06/01 06:07:14;;;;;;;12.52;6.47;;;;;;;;;;4832282;29;20062;-63
2023/06/01 06:09:44;;;;;;;11.07;5.60;;;;;;;;;;4840219;29;20076;-63
2023/06/01 06:12:14;;;;;;;9.90;5.20;;;;;;;;;;4850079;29;20080;-64
2023/06/01 06:14:44;;;;;;;12.77;5.63;;;;;;;;;;4848189;29;20072;-62
2023/06/01 06:17:14;;;;;;;16.40;6.03;;;;;;;;;;4834839;29;20069;-62
2023/06/01 06:19:47;;;;;;;13.27;5.50;;;;;;;;;;4868577;29;20057;-63
2023/06/01 06:22:18;;;;;;;11.60;5.28;;;;;;;;;;4886491;29;20052;-63
2023/06/01 06:24:49;;;;;;;10.38;5.15;;;;;;;;;;4899318;29;20570;-62
2023/06/01 06:27:19;;;;;;;16.48;6.00;;;;;;;;;;4933559;29;20048;-63
2023/06/01 06:29:49;;;;;;;13.63;5.18;;;;;;;;;;4936556;29;20059;-63
2023/06/01 06:32:20;;;;;;;12.90;5.47;;;;;;;;;;4952164;28;20051;-62
2023/06/01 06:34:51;;;;;;;11.02;5.22;;;;;;;;;;4982452;28;20072;-63
2023/06/01 06:37:21;;;;;;;14.32;5.78;;;;;;;;;;5042336;28;20233;-62
2023/06/01 06:39:51;;;;;;;11.65;5.28;;;;;;;;;;5072979;28;20044;-63
2023/06/01 06:42:23;;;;;;;11.18;5.32;;;;;;;;;;5072703;28;20048;-63
2023/06/01 06:44:53;;;;;;;12.00;5.40;;;;;;;;;;5030415;28;20054;-63
2023/06/01 06:47:24;;;;;;;11.90;5.25;;;;;;;;;;4997352;28;20101;-62
2023/06/01 06:49:54;;;;;;;11.48;5.05;;;;;;;;;;4980267;28;20065;-63
2023/06/01 06:52:25;;;;;;;11.98;4.90;;;;;;;;;;4997352;28;20049;-63
2023/06/01 06:54:55;;;;;;;11.52;5.53;;;;;;;;;;4998402;28;20049;-62
2023/06/01 06:57:25;;;;;;;11.38;5.50;;;;;;;;;;5030243;28;20559;-63
2023/06/01 06:59:55;;;;;;;11.27;5.53;;;;;;;;;;4958493;28;20058;-64
2023/06/01 07:02:26;;;;;;;13.70;6.95;;;;;;;;;;4990724;28;20050;-63
2023/06/01 07:04:57;;;;;;;12.20;5.47;;;;;;;;;;4959172;28;20058;-63
2023/06/01 07:07:27;;;;;;;10.55;5.38;;;;;;;;;;4990722;28;20046;-62
2023/06/01 07:09:57;;;;;;;11.32;5.40;;;;;;;;;;4958922;28;20062;-62
2023/06/01 07:12:27;;;;;;;10.27;5.25;;;;;;;;;;4958388;28;20046;-63
2023/06/01 07:14:57;;;;;;;12.57;5.30;;;;;;;;;;4990723;28;20050;-63
2023/06/01 07:17:28;;;;;;;12.25;4.80;;;;;;;;;;4990543;28;20526;-64
2023/06/01 07:20:01;;;;;;;11.18;5.18;;;;;;;;;;4990614;28;20534;-63
2023/06/01 07:22:31;;;;;;;16.17;5.75;;;;;;;;;;5009691;28;20061;-63
2023/06/01 07:25:02;;;;;;;12.77;6.05;;;;;;;;;;5029951;28;20382;-63
2023/06/01 07:27:35;;;;;;;13.75;6.65;;;;;;;;;;5013018;28;20058;-63
2023/06/01 07:30:07;;;;;;;;;;;;;;;;;;4982202;28;20054;-63
2023/06/01 07:32:38;;;;;;;12.57;5.60;;;;;;;;;;5029636;28;20021;-63
2023/06/01 07:35:09;;;;;;;13.10;5.25;;;;;;;;;;4996793;28;20082;-63
2023/06/01 07:37:40;;;;;;;11.40;5.03;;;;;;;;;;5019070;28;20057;-63
2023/06/01 07:40:12;;;;;;;11.52;4.95;;;;;;;;;;5036532;28;20052;-63
2023/06/01 07:42:42;;;;;;;10.90;5.05;;;;;;;;;;5036601;28;20531;-64
2023/06/01 07:45:13;;;;;;;11.15;4.97;;;;;;;;;;5053047;28;20048;-63
2023/06/01 07:47:45;;;;;;;11.68;4.70;;;;;;;;;;5036413;28;20523;-64
2023/06/01 07:50:16;;;;;;;14.77;5.25;;;;;;;;;;5071648;28;20400;-63
2023/06/01 07:52:46;;;;;;;10.52;4.50;;;;;;;;;;5071555;28;20049;-62
2023/06/01 07:55:16;;;;;;;11.93;5.30;;;;;;;;;;5071657;28;20044;-63
2023/06/01 07:57:46;;;;;;;10.75;5.35;;;;;;;;;;5069463;28;20040;-63
2023/06/01 08:00:17;;;;;;;9.75;5.18;;;;;;;;;;5071485;28;20049;-63
2023/06/01 08:02:48;;;;;;;10.43;5.15;;;;;;;;;;5019945;28;20045;-65
2023/06/01 08:05:18;;;;;;;10.25;4.68;;;;;;;;;;5069410;28;20492;-63
2023/06/01 08:07:49;;;;;;;11.30;5.40;;;;;;;;;;5071511;28;20037;-62
2023/06/01 08:10:19;;;;;;;12.45;5.88;;;;;;;;;;5071422;28;20385;-63
2023/06/01 08:12:49;;;;;;;12.00;5.15;;;;;;;;;;5071449;28;20036;-63
2023/06/01 08:15:20;;;;;;;10.02;5.18;;;;;;;;;;5071023;28;20155;-63
2023/06/01 08:17:50;;;;;;;10.15;5.35;;;;;;;;;;5052187;28;20059;-63
2023/06/01 08:20:25;;;;;;;13.63;5.68;;;;;;;;;;5035722;28;20086;-63
2023/06/01 08:22:56;;;;;;;15.00;5.85;;;;;;;;;;5071220;28;20067;-63
2023/06/01 08:25:27;;;;;;;11.65;6.10;;;;;;;;;;5052224;28;20155;-64
2023/06/01 08:27:57;;;;;;;12.75;6.05;;;;;;;;;;5036838;28;20063;-63
2023/06/01 08:30:28;;;;;;;11.25;5.90;;;;;;;;;;5035229;28;20059;-63
2023/06/01 08:32:58;;;;;;;14.57;5.95;;;;;;;;;;5048243;28;20056;-62
2023/06/01 08:35:30;;;;;;;11.55;5.80;;;;;;;;;;5048418;28;20064;-63
2023/06/01 08:38:03;;;;;;;12.50;5.97;;;;;;;;;;5048467;28;20049;-63
2023/06/01 08:40:33;;;;;;;17.83;6.32;;;;;;;;;;5048516;28;20049;-62
2023/06/01 08:43:25;;;;;;;11.50;5.18;;;;;;;;;;5048344;28;20115;-63
2023/06/01 08:45:57;;;;;;;13.95;5.22;;;;;;;;;;5016186;28;20071;-63
2023/06/01 08:48:27;;;;;;;;;;;;;;;;;;5048854;28;20088;-63
2023/06/01 08:50:59;;;;;;;10.82;5.38;;;;;;;;;;4999033;28;20304;-62
2023/06/01 08:53:33;;;;;;;8.75;4.97;;;;;;;;;;5048308;28;20053;-63
2023/06/01 08:56:04;;;;;;;11.02;5.63;;;;;;;;;;4975968;28;20058;-63
2023/06/01 08:58:35;;;;;;;14.75;5.05;;;;;;;;;;4959996;28;20052;-63
2023/06/01 09:01:06;;;;;;;14.60;6.97;;;;;;;;;;4960252;28;20399;-63
2023/06/01 09:03:37;;;;;;;15.38;7.03;;;;;;;;;;5008499;28;20062;-63
2023/06/01 09:06:07;;;;;;;16.33;7.72;;;;;;;;;;4977398;28;20065;-63
2023/06/01 09:08:37;;;;;;;17.48;7.70;;;;;;;;;;5008379;28;20070;-63
2023/06/01 09:11:08;;;;;;;16.00;7.70;;;;;;;;;;5008756;28;20062;-63
2023/06/01 09:13:40;;;;;;;19.88;8.00;;;;;;;;;;5010868;28;20513;-63
2023/06/01 09:16:10;;;;;;;24.20;8.55;;;;;;;;;;4980065;28;20064;-62
2023/06/01 09:18:54;;;;;;;17.13;7.55;;;;;;;;;;5012261;28;20065;-65
2023/06/01 09:21:25;;;;;;;17.75;7.15;;;;;;;;;;5012189;28;20070;-62
2023/06/01 09:23:56;;;;;;;17.10;7.18;;;;;;;;;;5012256;28;20046;-62
2023/06/01 09:26:27;;;;;;;15.43;6.88;;;;;;;;;;5012281;28;20062;-63
2023/06/01 09:28:59;;;;;;;27.83;7.93;;;;;;;;;;4992407;28;20072;-63
2023/06/01 09:31:35;;;;;;;23.60;7.13;;;;;;;;;;4992561;28;20387;-63
2023/06/01 09:34:06;;;;;;;24.73;7.45;;;;;;;;;;4985667;28;20058;-62
2023/06/01 09:36:36;;;;;;;27.40;7.68;;;;;;;;;;5008192;28;20061;-62
2023/06/01 09:39:09;;;;;;;20.15;7.05;;;;;;;;;;4992440;28;20055;-63
2023/06/01 09:41:49;;;;;;;28.15;7.38;;;;;;;;;;4992432;28;20407;-63
2023/06/01 09:44:28;;;;;;;33.22;7.60;;;;;;;;;;4943938;28;20054;-62
2023/06/01 09:47:03;;;;;;;19.70;7.57;;;;;;;;;;4992140;28;20050;-63
2023/06/01 09:49:37;;;;;;;22.40;7.20;;;;;;;;;;4944220;28;20506;-62
2023/06/01 09:52:07;;;;;;;25.70;7.30;;;;;;;;;;4991870;28;20054;-62
2023/06/01 09:54:44;;;;;;;20.83;8.43;;;;;;;;;;4992069;28;20082;-62
2023/06/01 09:57:24;;;;;;;14.88;7.47;;;;;;;;;;4992190;28;20434;-63
2023/06/01 09:59:54;;;;;;;25.23;7.78;;;;;;;;;;4992012;28;20407;-63
2023/06/01 10:02:25;;;;;;;15.93;6.78;;;;;;;;;;4992006;28;20059;-63
2023/06/01 10:04:58;;;;;;;19.48;6.72;;;;;;;;;;4943466;28;20054;-64
2023/06/01 10:07:31;;;;;;;15.38;6.80;;;;;;;;;;4994360;28;20064;-63
2023/06/01 10:10:03;;;;;;;;;;;;;;;;;;5031512;28;20053;-62
2023/06/01 10:12:34;;;;;;;24.65;6.55;;;;;;;;;;4998237;28;19921;-64
2023/06/01 10:15:05;;;;;;;15.63;5.93;;;;;;;;;;5031864;28;20059;-63
2023/06/01 10:17:55;;;;;;;14.00;5.68;;;;;;;;;;5072855;28;20059;-62
2023/06/01 10:20:26;;;;;;;15.93;5.57;;;;;;;;;;5072986;28;20433;-62
2023/06/01 10:22:56;;;;;;;12.57;5.65;;;;;;;;;;5081602;28;20043;-62
2023/06/01 10:25:35;;;;;;;13.15;5.57;;;;;;;;;;5073225;28;20041;-62
2023/06/01 10:28:10;;;;;;;15.30;5.90;;;;;;;;;;5007769;28;20048;-63
2023/06/01 10:30:40;;;;;;;12.70;5.53;;;;;;;;;;5045542;28;20054;-62
2023/06/01 10:33:10;;;;;;;20.42;6.00;;;;;;;;;;5040370;28;20413;-64
2023/06/01 10:35:43;;;;;;;14.43;6.18;;;;;;;;;;5073314;28;20123;-63
2023/06/01 10:38:13;;;;;;;13.77;5.70;;;;;;;;;;5072995;28;20134;-64
2023/06/01 10:40:46;;;;;;;13.30;5.93;;;;;;;;;;5044116;28;20527;-63
2023/06/01 10:43:40;;;;;;;12.02;5.60;;;;;;;;;;4992098;28;20393;-64
2023/06/01 10:46:36;;;;;;;18.02;5.30;;;;;;;;;;5037783;28;20393;-63
2023/06/01 10:49:07;;;;;;;17.60;5.63;;;;;;;;;;5072918;28;20048;-61
2023/06/01 10:51:37;;;;;;;13.82;6.50;;;;;;;;;;5037621;28;20052;-62
2023/06/01 10:54:36;;;;;;;14.07;6.13;;;;;;;;;;5072653;28;20041;-62
2023/06/01 10:57:24;;;;;;;11.23;5.55;;;;;;;;;;5010269;28;20065;-62
2023/06/01 11:00:19;;;;;;;13.48;5.97;;;;;;;;;;5010045;28;20085;-62
2023/06/01 11:02:58;;;;;;;16.85;5.43;;;;;;;;;;5010211;28;20054;-61
2023/06/01 11:05:37;;;;;;;10.13;5.40;;;;;;;;;;4947455;28;20413;-62
2023/06/01 11:08:29;;;;;;;10.88;5.28;;;;;;;;;;4963954;28;20054;-62
2023/06/01 11:11:05;;;;;;;15.23;5.55;;;;;;;;;;4961835;28;20057;-62
2023/06/01 11:13:39;;;;;;;9.23;5.40;;;;;;;;;;4993280;28;20057;-61
2023/06/01 11:16:10;;;;;;;11.43;4.97;;;;;;;;;;5016484;28;20041;-61
2023/06/01 11:18:58;;;;;;;8.90;4.75;;;;;;;;;;5009984;28;20073;-61
2023/06/01 11:21:39;;;;;;;10.95;4.93;;;;;;;;;;4977031;28;20503;-62
2023/06/01 11:24:16;;;;;;;12.80;5.40;;;;;;;;;;4977561;28;20061;-61
2023/06/01 11:26:49;;;;;;;18.88;5.45;;;;;;;;;;4979943;28;20190;-63
2023/06/01 11:29:20;;;;;;;;;;;;;;;;;;5030043;28;20457;-61
2023/06/01 11:31:55;;;;;;;19.67;5.28;;;;;;;;;;4980534;28;19928;-63
2023/06/01 11:34:44;;;;;;;24.50;5.38;;;;;;;;;;5061779;28;20052;-62
2023/06/01 11:37:19;;;;;;;12.65;5.70;;;;;;;;;;5068469;28;20056;-62
2023/06/01 11:39:50;;;;;;;10.40;5.40;;;;;;;;;;5069157;28;20427;-63
2023/06/01 11:42:21;;;;;;;10.32;5.00;;;;;;;;;;5019360;28;20049;-62
2023/06/01 11:44:59;;;;;;;9.90;5.28;;;;;;;;;;5047194;28;20048;-61
2023/06/01 11:47:30;;;;;;;9.82;5.57;;;;;;;;;;5023066;28;20048;-63
2023/06/01 11:50:01;;;;;;;9.75;4.82;;;;;;;;;;5091514;28;20063;-61
2023/06/01 11:52:31;;;;;;;10.00;5.03;;;;;;;;;;5028613;28;20411;-62
2023/06/01 11:55:05;;;;;;;11.55;4.57;;;;;;;;;;5028690;28;20076;-62
2023/06/01 11:57:40;;;;;;;8.50;4.40;;;;;;;;;;5029264;28;20120;-62
2023/06/01 12:00:13;;;;;;;9.60;4.60;;;;;;;;;;5045470;28;20049;-61
2023/06/01 12:02:44;;;;;;;8.95;4.82;;;;;;;;;;4995667;28;20050;-62
2023/06/01 12:05:15;;;;;;;14.38;4.80;;;;;;;;;;5028792;28;20053;-62
2023/06/01 12:07:51;;;;;;;9.57;5.03;;;;;;;;;;4981020;28;20559;-62
2023/06/01 12:10:23;;;;;;;15.35;5.85;;;;;;;;;;5012458;28;20068;-63
2023/06/01 12:12:53;;;;;;;18.05;8.13;;;;;;;;;;5028858;28;20069;-62
2023/06/01 12:15:23;;;;;;;19.10;6.93;;;;;;;;;;4995667;28;20048;-62
2023/06/01 12:17:56;;;;;;;13.18;6.75;;;;;;;;;;5028536;28;20058;-63
2023/06/01 12:20:37;;;;;;;15.18;7.45;;;;;;;;;;5028383;28;20049;-62
2023/06/01 12:23:13;;;;;;;15.52;7.07;;;;;;;;;;5028410;28;20053;-62
2023/06/01 12:25:52;;;;;;;22.90;7.63;;;;;;;;;;5012588;28;20057;-63
2023/06/01 12:28:24;;;;;;;42.95;13.05;;;;;;;;;;5027102;28;20064;-66
2023/06/01 12:31:12;;;;;;;41.47;16.48;;;;;;;;;;5010560;28;20397;-63
2023/06/01 12:33:45;;;;;;;22.95;8.93;;;;;;;;;;5068125;28;20053;-64
2023/06/01 12:36:34;;;;;;;21.48;10.32;;;;;;;;;;5033966;28;20079;-62
2023/06/01 12:39:05;;;;;;;23.00;11.52;;;;;;;;;;5046428;28;20384;-62
2023/06/01 12:41:35;;;;;;;21.75;8.82;;;;;;;;;;5072572;28;20052;-62
2023/06/01 12:44:05;;;;;;;16.08;7.90;;;;;;;;;;5090572;28;20484;-63
2023/06/01 12:46:36;;;;;;;16.98;9.20;;;;;;;;;;5055227;28;20052;-63
2023/06/01 12:49:14;;;;;;;14.88;6.47;;;;;;;;;;5094575;28;20510;-62
2023/06/01 12:51:45;;;;;;;25.13;11.55;;;;;;;;;;5072325;28;20088;-61
2023/06/01 12:54:23;;;;;;;18.63;8.32;;;;;;;;;;5071933;28;20049;-62
2023/06/01 12:56:53;;;;;;;18.30;7.90;;;;;;;;;;5055756;28;20075;-63
2023/06/01 12:59:24;;;;;;;16.67;6.65;;;;;;;;;;5072262;28;20052;-62
2023/06/01 13:01:54;;;;;;;15.70;6.25;;;;;;;;;;5038719;28;20056;-62
2023/06/01 13:04:25;;;;;;;18.45;8.38;;;;;;;;;;5071888;28;20059;-62
2023/06/01 13:06:55;;;;;;;15.20;6.85;;;;;;;;;;5021821;28;20053;-62
2023/06/01 13:09:25;;;;;;;19.90;8.43;;;;;;;;;;5055950;28;20053;-62
2023/06/01 13:11:56;;;;;;;24.60;11.77;;;;;;;;;;5072804;28;20052;-61
2023/06/01 13:14:26;;;;;;;20.73;8.57;;;;;;;;;;5071803;28;20045;-63
2023/06/01 13:16:58;;;;;;;25.08;8.25;;;;;;;;;;5071693;28;20060;-62
2023/06/01 13:19:28;;;;;;;26.75;9.57;;;;;;;;;;5022248;28;20068;-62
2023/06/01 13:21:59;;;;;;;25.50;9.15;;;;;;;;;;5058253;28;20052;-62
2023/06/01 13:24:29;;;;;;;33.92;10.95;;;;;;;;;;5058340;28;20700;-63
2023/06/01 13:27:19;;;;;;;35.13;10.73;;;;;;;;;;5065279;28;20055;-62
2023/06/01 13:29:49;;;;;;;40.28;11.43;;;;;;;;;;5005608;28;20059;-62
2023/06/01 13:32:20;;;;;;;42.17;14.00;;;;;;;;;;5074155;28;20403;-63
2023/06/01 13:34:50;;;;;;;33.45;10.77;;;;;;;;;;5073544;28;20048;-62
2023/06/01 13:37:20;;;;;;;41.92;12.45;;;;;;;;;;5038353;28;20052;-63
2023/06/01 13:39:52;;;;;;;43.13;14.40;;;;;;;;;;5073483;28;20422;-62
2023/06/01 13:42:22;;;;;;;39.05;12.23;;;;;;;;;;5054942;28;20463;-63
2023/06/01 13:44:53;;;;;;;38.13;11.65;;;;;;;;;;5073639;28;20041;-61
2023/06/01 13:47:23;;;;;;;36.55;12.57;;;;;;;;;;5006344;28;20048;-59
2023/06/01 13:49:53;;;;;;;38.70;12.27;;;;;;;;;;5073491;28;20059;-61
2023/06/01 13:52:25;;;;;;;42.53;12.32;;;;;;;;;;5017777;28;20041;-61
2023/06/01 13:54:55;;;;;;;36.70;11.40;;;;;;;;;;5050740;28;20068;-62
2023/06/01 13:57:28;;;;;;;40.53;12.27;;;;;;;;;;5050816;28;20061;-61
2023/06/01 13:59:58;;;;;;;44.00;13.82;;;;;;;;;;5000470;28;20053;-60
2023/06/01 14:02:33;;;;;;;32.35;12.07;;;;;;;;;;5050868;28;20053;-60
2023/06/01 14:05:04;;;;;;;31.45;11.68;;;;;;;;;;5050119;28;20061;-61
2023/06/01 14:07:42;;;;;;;36.28;13.15;;;;;;;;;;5033751;28;20508;-61
2023/06/01 14:10:14;;;;;;;30.40;11.10;;;;;;;;;;5033793;28;20519;-60
2023/06/01 14:12:46;;;;;;;25.88;9.65;;;;;;;;;;5015012;28;20060;-60
2023/06/01 14:15:16;;;;;;;25.65;9.93;;;;;;;;;;5029941;28;20057;-61
2023/06/01 14:17:50;;;;;;;24.60;9.32;;;;;;;;;;5014043;28;20056;-61
2023/06/01 14:20:20;;;;;;;23.10;8.82;;;;;;;;;;5013751;28;20060;-61
2023/06/01 14:22:50;;;;;;;25.58;7.63;;;;;;;;;;5030600;28;20072;-61
2023/06/01 14:25:20;;;;;;;28.95;9.23;;;;;;;;;;4997291;28;20061;-61
2023/06/01 14:27:51;;;;;;;21.83;8.07;;;;;;;;;;5030471;28;20054;-64
2023/06/01 14:30:23;;;;;;;14.18;7.10;;;;;;;;;;5025454;28;20045;-64
2023/06/01 14:32:54;;;;;;;21.40;7.68;;;;;;;;;;5017191;28;20457;-61
2023/06/01 14:35:26;;;;;;;17.90;6.97;;;;;;;;;;5017180;28;20056;-61
2023/06/01 14:37:57;;;;;;;17.48;7.28;;;;;;;;;;5050452;28;20056;-61
2023/06/01 14:40:27;;;;;;;14.63;6.95;;;;;;;;;;5050074;28;20161;-62
2023/06/01 14:42:57;;;;;;;15.52;5.78;;;;;;;;;;5016912;28;20052;-62
2023/06/01 14:45:27;;;;;;;10.55;5.00;;;;;;;;;;5051036;28;20051;-62
2023/06/01 14:47:58;;;;;;;9.63;3.97;;;;;;;;;;5070229;28;20048;-64
2023/06/01 14:50:28;;;;;;;11.15;4.25;;;;;;;;;;5031466;28;20055;-63
2023/06/01 14:53:01;;;;;;;10.10;5.30;;;;;;;;;;5057281;28;20403;-63
2023/06/01 14:55:31;;;;;;;10.68;4.68;;;;;;;;;;5040106;28;20146;-61
2023/06/01 14:58:02;;;;;;;12.43;5.00;;;;;;;;;;5069746;28;20045;-62
2023/06/01 15:00:32;;;;;;;8.90;4.10;;;;;;;;;;5069636;28;20072;-62
2023/06/01 15:03:07;;;;;;;10.68;5.10;;;;;;;;;;5036059;28;20531;-64
2023/06/01 15:05:37;;;;;;;11.30;4.68;;;;;;;;;;5069368;28;20404;-61
2023/06/01 15:08:07;;;;;;;11.00;5.03;;;;;;;;;;5020201;28;20056;-63